sensor_id;sensor_type;location;lat;lon;timestamp;pressure;altitude;pressure_sealevel;temperature;humidity
36600;BME280;35385;55.668;37.508;2023-05-02T00:00:11;99779.16;;;3.76;100.00
36600;BME280;35385;55.668;37.508;2023-05-02T00:01:13;99767.06;;;3.72;100.00
36600;BME280;35385;55.668;37.508;2023-05-02T00:02:14;99717.72;;;3.40;100.00
36600;BME280;35385;55.668;37.508;2023-05-02T00:03:15;99748.19;;;3.63;100.00
36600;BME280;35385;55.668;37.508;2023-05-02T00:04:16;99743.34;;;3.55;100.00
36600;BME280;35385;55.668;37.508;2023-05-02T00:05:17;99791.44;;;3.77;100.00
36600;BME280;35385;55.668;37.508;2023-05-02T00:06:18;99787.72;;;3.81;100.00
36600;BME280;35385;55.668;37.508;2023-05-02T00:07:18;99792.78;;;3.86;100.00
36600;BME280;35385;55.668;37.508;2023-05-02T00:08:19;99787.41;;;3.87;100.00
36600;BME280;35385;55.668;37.508;2023-05-02T00:09:20;99793.47;;;3.89;100.00
36600;BME280;35385;55.668;37.508;2023-05-02T00:10:21;99791.91;;;3.85;100.00
36600;BME280;35385;55.668;37.508;2023-05-02T00:11:22;99786.44;;;3.73;100.00
36600;BME280;35385;55.668;37.508;2023-05-02T00:12:23;99795.34;;;3.87;100.00
36600;BME280;35385;55.668;37.508;2023-05-02T00:13:24;99792.69;;;3.87;100.00
36600;BME280;35385;55.668;37.508;2023-05-02T00:14:24;99792.69;;;3.87;100.00
36600;BME280;35385;55.668;37.508;2023-05-02T00:15:25;99803.19;;;3.89;100.00
36600;BME280;35385;55.668;37.508;2023-05-02T00:16:26;99801.81;;;3.98;100.00
36600;BME280;35385;55.668;37.508;2023-05-02T00:17:27;99800.19;;;3.95;100.00
36600;BME280;35385;55.668;37.508;2023-05-02T00:18:27;99787.41;;;3.87;100.00
36600;BME280;35385;55.668;37.508;2023-05-02T00:19:28;99807.97;;;3.98;100.00
36600;BME280;35385;55.668;37.508;2023-05-02T00:20:28;99775.78;;;3.74;100.00
36600;BME280;35385;55.668;37.508;2023-05-02T00:21:29;99735.56;;;3.52;100.00
36600;BME280;35385;55.668;37.508;2023-05-02T00:22:30;99804.78;;;3.91;100.00
36600;BME280;35385;55.668;37.508;2023-05-02T00:23:31;99811.63;;;3.96;100.00
36600;BME280;35385;55.668;37.508;2023-05-02T00:24:32;99814.03;;;4.00;100.00
36600;BME280;35385;55.668;37.508;2023-05-02T00:25:32;99826.97;;;4.05;100.00
36600;BME280;35385;55.668;37.508;2023-05-02T00:26:33;99817.69;;;3.98;100.00
36600;BME280;35385;55.668;37.508;2023-05-02T00:27:34;99809.91;;;3.95;100.00
36600;BME280;35385;55.668;37.508;2023-05-02T00:28:34;99731.22;;;3.51;100.00
36600;BME280;35385;55.668;37.508;2023-05-02T00:29:35;99807.03;;;3.99;100.00
36600;BME280;35385;55.668;37.508;2023-05-02T00:30:36;99820.59;;;4.09;100.00
36600;BME280;35385;55.668;37.508;2023-05-02T00:31:37;99815.75;;;4.01;100.00
36600;BME280;35385;55.668;37.508;2023-05-02T00:32:39;99827.16;;;4.02;100.00
36600;BME280;35385;55.668;37.508;2023-05-02T00:33:41;99827.94;;;4.04;100.00
36600;BME280;35385;55.668;37.508;2023-05-02T00:34:41;99827.47;;;3.96;100.00
36600;BME280;35385;55.668;37.508;2023-05-02T00:35:42;99829.75;;;4.03;100.00
36600;BME280;35385;55.668;37.508;2023-05-02T00:36:42;99827.31;;;3.99;100.00
36600;BME280;35385;55.668;37.508;2023-05-02T00:37:43;99825.94;;;3.91;100.00
36600;BME280;35385;55.668;37.508;2023-05-02T00:38:44;99832.16;;;3.90;100.00
36600;BME280;35385;55.668;37.508;2023-05-02T00:39:45;99831.56;;;3.85;100.00
36600;BME280;35385;55.668;37.508;2023-05-02T00:40:48;99755.06;;;3.49;100.00
36600;BME280;35385;55.668;37.508;2023-05-02T00:41:57;99836.19;;;3.98;100.00
36600;BME280;35385;55.668;37.508;2023-05-02T00:42:58;99835.91;;;3.86;100.00
36600;BME280;35385;55.668;37.508;2023-05-02T00:43:58;99823.00;;;3.80;100.00
36600;BME280;35385;55.668;37.508;2023-05-02T00:44:59;99840.41;;;3.84;100.00
36600;BME280;35385;55.668;37.508;2023-05-02T00:45:59;99842.44;;;3.79;100.00
36600;BME280;35385;55.668;37.508;2023-05-02T00:47:00;99839.88;;;3.78;100.00
36600;BME280;35385;55.668;37.508;2023-05-02T00:48:01;99821.31;;;3.62;100.00
36600;BME280;35385;55.668;37.508;2023-05-02T00:49:02;99772.88;;;3.29;100.00
36600;BME280;35385;55.668;37.508;2023-05-02T00:50:02;99842.44;;;3.62;100.00
36600;BME280;35385;55.668;37.508;2023-05-02T00:51:04;99867.63;;;3.69;100.00
36600;BME280;35385;55.668;37.508;2023-05-02T00:52:05;99686.38;;;2.65;100.00
36600;BME280;35385;55.668;37.508;2023-05-02T00:53:08;99791.50;;;3.26;100.00
36600;BME280;35385;55.668;37.508;2023-05-02T00:54:09;99846.97;;;3.60;100.00
36600;BME280;35385;55.668;37.508;2023-05-02T00:55:10;99845.56;;;3.53;100.00
36600;BME280;35385;55.668;37.508;2023-05-02T00:56:11;99844.94;;;3.65;100.00
36600;BME280;35385;55.668;37.508;2023-05-02T00:57:11;99836.56;;;3.57;100.00
36600;BME280;35385;55.668;37.508;2023-05-02T00:58:13;99847.66;;;3.64;100.00
36600;BME280;35385;55.668;37.508;2023-05-02T00:59:15;99802.38;;;3.37;100.00
36600;BME280;35385;55.668;37.508;2023-05-02T01:00:17;99851.94;;;3.66;100.00
36600;BME280;35385;55.668;37.508;2023-05-02T01:03:11;99849.84;;;3.73;100.00
36600;BME280;35385;55.668;37.508;2023-05-02T01:06:02;99843.56;;;3.58;100.00
36600;BME280;35385;55.668;37.508;2023-05-02T01:08:12;99856.50;;;3.63;100.00
36600;BME280;35385;55.668;37.508;2023-05-02T01:09:36;99861.03;;;3.61;100.00
36600;BME280;35385;55.668;37.508;2023-05-02T01:13:09;99868.78;;;3.64;100.00
36600;BME280;35385;55.668;37.508;2023-05-02T01:14:11;99861.56;;;3.50;100.00
36600;BME280;35385;55.668;37.508;2023-05-02T01:15:20;99858.53;;;3.58;100.00
36600;BME280;35385;55.668;37.508;2023-05-02T01:16:23;99793.13;;;3.11;100.00
36600;BME280;35385;55.668;37.508;2023-05-02T01:17:29;99878.81;;;3.57;100.00
36600;BME280;35385;55.668;37.508;2023-05-02T01:18:34;99854.75;;;3.46;100.00
36600;BME280;35385;55.668;37.508;2023-05-02T01:19:39;99837.47;;;3.39;100.00
36600;BME280;35385;55.668;37.508;2023-05-02T01:20:42;99871.19;;;3.51;100.00
36600;BME280;35385;55.668;37.508;2023-05-02T01:21:45;99864.19;;;3.50;100.00
36600;BME280;35385;55.668;37.508;2023-05-02T01:22:47;99876.31;;;3.54;100.00
36600;BME280;35385;55.668;37.508;2023-05-02T01:24:18;99879.53;;;3.61;100.00
36600;BME280;35385;55.668;37.508;2023-05-02T01:28:30;99822.25;;;3.27;100.00
36600;BME280;35385;55.668;37.508;2023-05-02T01:29:36;99830.97;;;3.29;100.00
36600;BME280;35385;55.668;37.508;2023-05-02T01:30:40;99863.19;;;3.52;100.00
36600;BME280;35385;55.668;37.508;2023-05-02T01:31:45;99874.13;;;3.62;100.00
36600;BME280;35385;55.668;37.508;2023-05-02T01:32:48;99840.28;;;3.36;100.00
36600;BME280;35385;55.668;37.508;2023-05-02T01:33:53;99861.25;;;3.56;100.00
36600;BME280;35385;55.668;37.508;2023-05-02T01:34:55;99779.69;;;2.98;100.00
36600;BME280;35385;55.668;37.508;2023-05-02T01:35:58;99895.84;;;3.69;100.00
36600;BME280;35385;55.668;37.508;2023-05-02T01:37:00;99853.78;;;3.47;100.00
36600;BME280;35385;55.668;37.508;2023-05-02T01:38:05;99787.06;;;3.09;100.00
36600;BME280;35385;55.668;37.508;2023-05-02T01:39:06;99885.41;;;3.66;100.00
36600;BME280;35385;55.668;37.508;2023-05-02T01:40:09;99844.47;;;3.40;100.00
36600;BME280;35385;55.668;37.508;2023-05-02T01:41:11;99896.34;;;3.75;100.00
36600;BME280;35385;55.668;37.508;2023-05-02T01:42:13;99887.19;;;3.65;100.00
36600;BME280;35385;55.668;37.508;2023-05-02T01:43:16;99828.78;;;3.37;100.00
36600;BME280;35385;55.668;37.508;2023-05-02T01:44:21;99845.00;;;3.46;100.00
36600;BME280;35385;55.668;37.508;2023-05-02T01:45:22;99899.34;;;3.69;100.00
36600;BME280;35385;55.668;37.508;2023-05-02T01:46:30;99900.03;;;3.73;100.00
36600;BME280;35385;55.668;37.508;2023-05-02T01:47:34;99886.41;;;3.63;100.00
36600;BME280;35385;55.668;37.508;2023-05-02T01:48:36;99907.19;;;3.71;100.00
36600;BME280;35385;55.668;37.508;2023-05-02T01:49:37;99905.53;;;3.68;100.00
36600;BME280;35385;55.668;37.508;2023-05-02T01:50:40;99893.34;;;3.66;100.00
36600;BME280;35385;55.668;37.508;2023-05-02T01:51:46;99901.63;;;3.75;100.00
36600;BME280;35385;55.668;37.508;2023-05-02T01:52:49;99897.53;;;3.70;100.00
36600;BME280;35385;55.668;37.508;2023-05-02T01:53:51;99708.97;;;2.34;100.00
36600;BME280;35385;55.668;37.508;2023-05-02T01:54:52;99907.97;;;3.73;100.00
36600;BME280;35385;55.668;37.508;2023-05-02T01:55:53;99914.53;;;3.64;100.00
36600;BME280;35385;55.668;37.508;2023-05-02T01:56:55;99899.47;;;3.49;100.00
36600;BME280;35385;55.668;37.508;2023-05-02T01:57:56;99911.53;;;3.54;100.00
36600;BME280;35385;55.668;37.508;2023-05-02T01:58:58;99887.50;;;3.42;100.00
36600;BME280;35385;55.668;37.508;2023-05-02T02:00:00;99901.25;;;3.48;100.00
36600;BME280;35385;55.668;37.508;2023-05-02T02:01:08;99802.19;;;2.88;100.00
36600;BME280;35385;55.668;37.508;2023-05-02T02:02:10;99835.19;;;2.97;100.00
36600;BME280;35385;55.668;37.508;2023-05-02T02:03:13;99908.13;;;3.34;100.00
36600;BME280;35385;55.668;37.508;2023-05-02T02:04:18;99922.97;;;3.36;100.00
36600;BME280;35385;55.668;37.508;2023-05-02T02:05:19;99910.16;;;3.29;100.00
36600;BME280;35385;55.668;37.508;2023-05-02T02:06:21;99915.88;;;3.19;100.00
36600;BME280;35385;55.668;37.508;2023-05-02T02:07:22;99922.88;;;3.20;100.00
36600;BME280;35385;55.668;37.508;2023-05-02T02:08:23;99900.63;;;3.07;100.00
36600;BME280;35385;55.668;37.508;2023-05-02T02:09:24;99928.88;;;3.24;100.00
36600;BME280;35385;55.668;37.508;2023-05-02T02:10:28;99920.53;;;3.14;100.00
36600;BME280;35385;55.668;37.508;2023-05-02T02:11:42;99921.41;;;3.15;100.00
36600;BME280;35385;55.668;37.508;2023-05-02T02:12:59;99918.03;;;3.11;100.00
36600;BME280;35385;55.668;37.508;2023-05-02T02:14:06;99932.75;;;3.17;100.00
36600;BME280;35385;55.668;37.508;2023-05-02T02:15:17;99936.00;;;3.22;100.00
36600;BME280;35385;55.668;37.508;2023-05-02T02:16:23;99934.34;;;3.19;100.00
36600;BME280;35385;55.668;37.508;2023-05-02T02:17:36;99942.94;;;3.25;100.00
36600;BME280;35385;55.668;37.508;2023-05-02T02:18:37;99953.50;;;3.25;100.00
36600;BME280;35385;55.668;37.508;2023-05-02T02:19:39;99947.72;;;3.16;100.00
36600;BME280;35385;55.668;37.508;2023-05-02T02:20:43;99890.09;;;2.89;100.00
36600;BME280;35385;55.668;37.508;2023-05-02T02:21:46;99949.00;;;3.27;100.00
36600;BME280;35385;55.668;37.508;2023-05-02T02:22:48;99928.59;;;3.11;100.00
36600;BME280;35385;55.668;37.508;2023-05-02T02:23:52;99957.56;;;3.32;100.00
36600;BME280;35385;55.668;37.508;2023-05-02T02:24:56;99943.41;;;3.33;100.00
36600;BME280;35385;55.668;37.508;2023-05-02T02:25:58;99934.53;;;3.34;100.00
36600;BME280;35385;55.668;37.508;2023-05-02T02:27:01;99952.81;;;3.38;100.00
36600;BME280;35385;55.668;37.508;2023-05-02T02:28:01;99926.94;;;3.28;100.00
36600;BME280;35385;55.668;37.508;2023-05-02T02:29:03;99950.09;;;3.40;100.00
36600;BME280;35385;55.668;37.508;2023-05-02T02:30:04;99950.19;;;3.38;100.00
36600;BME280;35385;55.668;37.508;2023-05-02T02:31:05;99953.59;;;3.40;100.00
36600;BME280;35385;55.668;37.508;2023-05-02T02:32:06;99932.44;;;3.23;100.00
36600;BME280;35385;55.668;37.508;2023-05-02T02:33:07;99925.31;;;3.06;100.00
36600;BME280;35385;55.668;37.508;2023-05-02T02:34:08;99960.75;;;3.38;100.00
36600;BME280;35385;55.668;37.508;2023-05-02T02:35:09;99939.34;;;3.26;100.00
36600;BME280;35385;55.668;37.508;2023-05-02T02:37:17;99960.06;;;3.52;100.00
36600;BME280;35385;55.668;37.508;2023-05-02T02:38:41;99964.13;;;3.59;100.00
36600;BME280;35385;55.668;37.508;2023-05-02T02:41:20;99950.34;;;3.52;100.00
36600;BME280;35385;55.668;37.508;2023-05-02T02:42:35;99958.78;;;3.61;100.00
36600;BME280;35385;55.668;37.508;2023-05-02T02:44:02;99954.19;;;3.64;100.00
36600;BME280;35385;55.668;37.508;2023-05-02T02:45:26;99976.66;;;3.73;100.00
36600;BME280;35385;55.668;37.508;2023-05-02T02:50:30;99968.97;;;3.85;100.00
36600;BME280;35385;55.668;37.508;2023-05-02T02:51:43;99971.69;;;3.84;100.00
36600;BME280;35385;55.668;37.508;2023-05-02T02:52:56;99976.75;;;3.88;100.00
36600;BME280;35385;55.668;37.508;2023-05-02T02:55:52;99968.34;;;3.80;100.00
36600;BME280;35385;55.668;37.508;2023-05-02T02:57:15;99967.13;;;3.87;100.00
36600;BME280;35385;55.668;37.508;2023-05-02T02:59:46;99966.63;;;3.79;100.00
36600;BME280;35385;55.668;37.508;2023-05-02T03:00:49;99978.69;;;3.85;100.00
36600;BME280;35385;55.668;37.508;2023-05-02T03:01:59;99960.31;;;3.65;100.00
36600;BME280;35385;55.668;37.508;2023-05-02T03:03:03;99926.47;;;3.37;100.00
36600;BME280;35385;55.668;37.508;2023-05-02T03:04:07;99931.56;;;3.59;100.00
36600;BME280;35385;55.668;37.508;2023-05-02T03:05:09;99983.66;;;3.91;100.00
36600;BME280;35385;55.668;37.508;2023-05-02T03:06:10;99981.25;;;3.86;100.00
36600;BME280;35385;55.668;37.508;2023-05-02T03:07:11;99984.50;;;3.91;100.00
36600;BME280;35385;55.668;37.508;2023-05-02T03:08:12;99919.38;;;3.56;100.00
36600;BME280;35385;55.668;37.508;2023-05-02T03:09:16;99987.94;;;3.94;100.00
36600;BME280;35385;55.668;37.508;2023-05-02T03:10:21;99991.34;;;3.96;100.00
36600;BME280;35385;55.668;37.508;2023-05-02T03:11:22;99981.88;;;3.91;100.00
36600;BME280;35385;55.668;37.508;2023-05-02T03:12:22;99945.97;;;3.70;100.00
36600;BME280;35385;55.668;37.508;2023-05-02T03:13:23;99980.94;;;3.92;100.00
36600;BME280;35385;55.668;37.508;2023-05-02T03:14:23;99937.88;;;3.73;100.00
36600;BME280;35385;55.668;37.508;2023-05-02T03:16:38;99984.59;;;4.07;100.00
36600;BME280;35385;55.668;37.508;2023-05-02T03:17:38;99961.19;;;4.00;100.00
36600;BME280;35385;55.668;37.508;2023-05-02T03:18:39;99986.22;;;4.10;100.00
36600;BME280;35385;55.668;37.508;2023-05-02T03:19:40;99992.28;;;4.12;100.00
36600;BME280;35385;55.668;37.508;2023-05-02T03:20:41;99936.19;;;3.89;100.00
36600;BME280;35385;55.668;37.508;2023-05-02T03:21:41;99945.78;;;3.90;100.00
36600;BME280;35385;55.668;37.508;2023-05-02T03:22:42;99993.94;;;4.14;100.00
36600;BME280;35385;55.668;37.508;2023-05-02T03:23:43;99981.88;;;4.09;100.00
36600;BME280;35385;55.668;37.508;2023-05-02T03:24:43;99996.31;;;4.19;100.00
36600;BME280;35385;55.668;37.508;2023-05-02T03:25:44;99995.72;;;4.14;100.00
36600;BME280;35385;55.668;37.508;2023-05-02T03:26:45;100001.00;;;4.14;100.00
36600;BME280;35385;55.668;37.508;2023-05-02T03:27:47;100001.78;;;4.16;100.00
36600;BME280;35385;55.668;37.508;2023-05-02T03:28:47;99995.56;;;4.17;100.00
36600;BME280;35385;55.668;37.508;2023-05-02T03:29:49;100003.25;;;4.21;100.00
36600;BME280;35385;55.668;37.508;2023-05-02T03:30:50;99996.94;;;4.24;100.00
36600;BME280;35385;55.668;37.508;2023-05-02T03:31:50;100009.09;;;4.28;100.00
36600;BME280;35385;55.668;37.508;2023-05-02T03:32:51;100013.31;;;4.32;100.00
36600;BME280;35385;55.668;37.508;2023-05-02T03:33:52;100005.50;;;4.29;100.00
36600;BME280;35385;55.668;37.508;2023-05-02T03:34:53;100012.97;;;4.38;100.00
36600;BME280;35385;55.668;37.508;2023-05-02T03:35:57;100003.41;;;4.36;100.00
36600;BME280;35385;55.668;37.508;2023-05-02T03:36:58;100002.53;;;4.35;100.00
36600;BME280;35385;55.668;37.508;2023-05-02T03:37:59;100012.75;;;4.43;100.00
36600;BME280;35385;55.668;37.508;2023-05-02T03:39:00;100010.16;;;4.58;100.00
36600;BME280;35385;55.668;37.508;2023-05-02T03:40:01;99956.91;;;4.32;100.00
36600;BME280;35385;55.668;37.508;2023-05-02T03:41:02;100022.31;;;4.78;100.00
36600;BME280;35385;55.668;37.508;2023-05-02T03:42:04;100006.50;;;4.77;100.00
36600;BME280;35385;55.668;37.508;2023-05-02T03:43:04;100018.34;;;4.87;100.00
36600;BME280;35385;55.668;37.508;2023-05-02T03:44:05;100019.03;;;4.90;100.00
36600;BME280;35385;55.668;37.508;2023-05-02T03:45:06;99978.53;;;4.73;100.00
36600;BME280;35385;55.668;37.508;2023-05-02T03:46:08;100021.78;;;5.05;100.00
36600;BME280;35385;55.668;37.508;2023-05-02T03:47:10;100018.47;;;5.17;100.00
36600;BME280;35385;55.668;37.508;2023-05-02T03:48:12;100025.41;;;5.19;100.00
36600;BME280;35385;55.668;37.508;2023-05-02T03:49:13;99977.69;;;4.88;100.00
36600;BME280;35385;55.668;37.508;2023-05-02T03:50:14;99967.19;;;4.86;100.00
36600;BME280;35385;55.668;37.508;2023-05-02T03:51:14;100023.41;;;5.23;100.00
36600;BME280;35385;55.668;37.508;2023-05-02T03:52:15;99984.63;;;5.06;100.00
36600;BME280;35385;55.668;37.508;2023-05-02T03:53:15;100017.72;;;5.30;100.00
36600;BME280;35385;55.668;37.508;2023-05-02T03:54:16;100022.16;;;5.46;100.00
36600;BME280;35385;55.668;37.508;2023-05-02T03:55:17;100039.50;;;5.51;100.00
36600;BME280;35385;55.668;37.508;2023-05-02T03:56:18;99990.94;;;5.35;100.00
36600;BME280;35385;55.668;37.508;2023-05-02T03:57:19;100026.00;;;5.56;100.00
36600;BME280;35385;55.668;37.508;2023-05-02T03:58:20;100013.78;;;5.53;100.00
36600;BME280;35385;55.668;37.508;2023-05-02T03:59:21;100029.75;;;5.67;100.00
36600;BME280;35385;55.668;37.508;2023-05-02T04:00:22;100013.34;;;5.61;100.00
36600;BME280;35385;55.668;37.508;2023-05-02T04:01:22;100010.00;;;5.57;100.00
36600;BME280;35385;55.668;37.508;2023-05-02T04:02:23;100028.09;;;5.81;100.00
36600;BME280;35385;55.668;37.508;2023-05-02T04:03:24;100020.75;;;5.86;100.00
36600;BME280;35385;55.668;37.508;2023-05-02T04:04:25;99996.66;;;5.75;100.00
36600;BME280;35385;55.668;37.508;2023-05-02T04:05:25;99988.09;;;5.85;100.00
36600;BME280;35385;55.668;37.508;2023-05-02T04:06:26;100028.50;;;6.20;100.00
36600;BME280;35385;55.668;37.508;2023-05-02T04:07:26;100031.28;;;6.33;100.00
36600;BME280;35385;55.668;37.508;2023-05-02T04:08:27;100034.22;;;6.43;100.00
36600;BME280;35385;55.668;37.508;2023-05-02T04:09:28;99983.50;;;6.19;100.00
36600;BME280;35385;55.668;37.508;2023-05-02T04:10:28;100045.72;;;6.57;100.00
36600;BME280;35385;55.668;37.508;2023-05-02T04:11:29;100034.84;;;6.62;100.00
36600;BME280;35385;55.668;37.508;2023-05-02T04:12:30;100047.72;;;6.68;100.00
36600;BME280;35385;55.668;37.508;2023-05-02T04:13:30;99983.13;;;6.39;100.00
36600;BME280;35385;55.668;37.508;2023-05-02T04:14:31;100043.44;;;6.65;100.00
36600;BME280;35385;55.668;37.508;2023-05-02T04:15:32;100039.91;;;6.51;100.00
36600;BME280;35385;55.668;37.508;2023-05-02T04:16:33;100034.31;;;6.41;100.00
36600;BME280;35385;55.668;37.508;2023-05-02T04:17:33;100008.63;;;6.42;100.00
36600;BME280;35385;55.668;37.508;2023-05-02T04:18:34;100042.34;;;6.84;100.00
36600;BME280;35385;55.668;37.508;2023-05-02T04:19:34;100042.94;;;6.89;100.00
36600;BME280;35385;55.668;37.508;2023-05-02T04:20:35;100052.59;;;6.90;100.00
36600;BME280;35385;55.668;37.508;2023-05-02T04:21:36;100043.03;;;7.01;100.00
36600;BME280;35385;55.668;37.508;2023-05-02T04:22:36;100042.34;;;7.26;100.00
36600;BME280;35385;55.668;37.508;2023-05-02T04:23:38;99954.44;;;6.88;100.00
36600;BME280;35385;55.668;37.508;2023-05-02T04:24:39;100038.59;;;7.57;100.00
36600;BME280;35385;55.668;37.508;2023-05-02T04:25:40;99999.25;;;7.35;100.00
36600;BME280;35385;55.668;37.508;2023-05-02T04:26:40;100053.03;;;7.80;100.00
36600;BME280;35385;55.668;37.508;2023-05-02T04:27:41;100053.97;;;7.93;100.00
36600;BME280;35385;55.668;37.508;2023-05-02T04:28:42;100041.97;;;8.00;100.00
36600;BME280;35385;55.668;37.508;2023-05-02T04:29:42;100042.84;;;8.13;100.00
36600;BME280;35385;55.668;37.508;2023-05-02T04:30:43;100058.63;;;8.16;100.00
36600;BME280;35385;55.668;37.508;2023-05-02T04:31:43;100051.72;;;8.27;100.00
36600;BME280;35385;55.668;37.508;2023-05-02T04:32:45;100010.16;;;8.11;100.00
36600;BME280;35385;55.668;37.508;2023-05-02T04:33:45;100052.22;;;8.33;100.00
36600;BME280;35385;55.668;37.508;2023-05-02T04:34:48;100010.72;;;8.16;100.00
36600;BME280;35385;55.668;37.508;2023-05-02T04:35:48;100051.91;;;8.24;100.00
36600;BME280;35385;55.668;37.508;2023-05-02T04:36:49;100052.75;;;8.38;100.00
36600;BME280;35385;55.668;37.508;2023-05-02T04:37:50;100057.69;;;8.57;100.00
36600;BME280;35385;55.668;37.508;2023-05-02T04:38:50;100065.78;;;8.81;100.00
36600;BME280;35385;55.668;37.508;2023-05-02T04:39:51;100049.94;;;8.79;100.00
36600;BME280;35385;55.668;37.508;2023-05-02T04:40:52;100057.78;;;8.68;100.00
36600;BME280;35385;55.668;37.508;2023-05-02T04:41:52;100053.66;;;8.64;100.00
36600;BME280;35385;55.668;37.508;2023-05-02T04:42:53;100050.66;;;8.81;100.00
36600;BME280;35385;55.668;37.508;2023-05-02T04:43:53;100063.47;;;9.02;100.00
36600;BME280;35385;55.668;37.508;2023-05-02T04:44:54;100023.19;;;8.94;100.00
36600;BME280;35385;55.668;37.508;2023-05-02T04:45:55;100013.38;;;9.07;100.00
36600;BME280;35385;55.668;37.508;2023-05-02T04:46:55;100069.72;;;9.51;100.00
36600;BME280;35385;55.668;37.508;2023-05-02T04:47:56;100067.84;;;9.65;100.00
36600;BME280;35385;55.668;37.508;2023-05-02T04:48:57;100066.75;;;9.80;100.00
36600;BME280;35385;55.668;37.508;2023-05-02T04:49:57;100051.38;;;9.47;100.00
36600;BME280;35385;55.668;37.508;2023-05-02T04:50:58;100070.84;;;9.60;100.00
36600;BME280;35385;55.668;37.508;2023-05-02T04:51:58;100062.28;;;9.68;100.00
36600;BME280;35385;55.668;37.508;2023-05-02T04:52:59;100068.63;;;9.90;100.00
36600;BME280;35385;55.668;37.508;2023-05-02T04:54:00;100066.63;;;10.05;100.00
36600;BME280;35385;55.668;37.508;2023-05-02T04:55:00;100079.63;;;10.22;100.00
36600;BME280;35385;55.668;37.508;2023-05-02T04:56:01;100069.94;;;10.33;100.00
36600;BME280;35385;55.668;37.508;2023-05-02T04:57:02;100008.47;;;9.98;100.00
36600;BME280;35385;55.668;37.508;2023-05-02T04:58:03;100075.13;;;10.58;100.00
36600;BME280;35385;55.668;37.508;2023-05-02T04:59:03;100080.63;;;10.68;100.00
36600;BME280;35385;55.668;37.508;2023-05-02T05:00:05;100062.63;;;10.58;100.00
36600;BME280;35385;55.668;37.508;2023-05-02T05:01:09;100078.56;;;10.71;100.00
36600;BME280;35385;55.668;37.508;2023-05-02T05:02:09;100043.78;;;10.49;100.00
36600;BME280;35385;55.668;37.508;2023-05-02T05:03:11;100076.91;;;10.81;100.00
36600;BME280;35385;55.668;37.508;2023-05-02T05:04:12;100064.13;;;10.74;100.00
36600;BME280;35385;55.668;37.508;2023-05-02T05:05:12;100072.03;;;10.75;100.00
36600;BME280;35385;55.668;37.508;2023-05-02T05:06:13;100057.41;;;10.57;100.00
36600;BME280;35385;55.668;37.508;2023-05-02T05:07:14;100079.09;;;10.76;100.00
36600;BME280;35385;55.668;37.508;2023-05-02T05:08:14;100065.84;;;10.75;100.00
36600;BME280;35385;55.668;37.508;2023-05-02T05:09:15;100056.25;;;10.83;100.00
36600;BME280;35385;55.668;37.508;2023-05-02T05:10:16;100053.47;;;10.85;100.00
36600;BME280;35385;55.668;37.508;2023-05-02T05:11:16;100042.88;;;10.83;100.00
36600;BME280;35385;55.668;37.508;2023-05-02T05:12:17;100077.22;;;11.23;100.00
36600;BME280;35385;55.668;37.508;2023-05-02T05:13:19;100033.94;;;11.07;100.00
36600;BME280;35385;55.668;37.508;2023-05-02T05:14:19;100090.00;;;11.53;100.00
36600;BME280;35385;55.668;37.508;2023-05-02T05:15:20;100070.28;;;11.54;100.00
36600;BME280;35385;55.668;37.508;2023-05-02T05:16:23;100072.56;;;11.69;100.00
36600;BME280;35385;55.668;37.508;2023-05-02T05:17:23;100078.91;;;11.91;100.00
36600;BME280;35385;55.668;37.508;2023-05-02T05:18:24;100072.09;;;11.64;100.00
36600;BME280;35385;55.668;37.508;2023-05-02T05:19:25;100084.72;;;11.85;100.00
36600;BME280;35385;55.668;37.508;2023-05-02T05:20:25;100066.69;;;11.98;100.00
36600;BME280;35385;55.668;37.508;2023-05-02T05:21:26;100086.06;;;12.33;100.00
36600;BME280;35385;55.668;37.508;2023-05-02T05:22:27;100081.63;;;12.44;100.00
36600;BME280;35385;55.668;37.508;2023-05-02T05:23:28;100052.47;;;12.29;100.00
36600;BME280;35385;55.668;37.508;2023-05-02T05:24:28;100076.69;;;12.28;100.00
36600;BME280;35385;55.668;37.508;2023-05-02T05:25:29;100033.09;;;12.05;100.00
36600;BME280;35385;55.668;37.508;2023-05-02T05:26:30;100073.81;;;12.52;100.00
36600;BME280;35385;55.668;37.508;2023-05-02T05:27:32;100040.97;;;12.18;100.00
36600;BME280;35385;55.668;37.508;2023-05-02T05:28:33;100076.25;;;12.55;100.00
36600;BME280;35385;55.668;37.508;2023-05-02T05:29:33;100087.34;;;12.50;97.53
36600;BME280;35385;55.668;37.508;2023-05-02T05:30:34;100086.63;;;12.48;97.05
36600;BME280;35385;55.668;37.508;2023-05-02T05:31:35;100087.09;;;12.53;93.98
36600;BME280;35385;55.668;37.508;2023-05-02T05:32:36;100087.31;;;12.82;94.42
36600;BME280;35385;55.668;37.508;2023-05-02T05:33:37;100078.94;;;12.96;93.55
36600;BME280;35385;55.668;37.508;2023-05-02T05:34:38;100098.28;;;13.00;91.29
36600;BME280;35385;55.668;37.508;2023-05-02T05:35:39;100061.44;;;13.02;91.39
36600;BME280;35385;55.668;37.508;2023-05-02T05:36:40;100081.59;;;13.38;90.30
36600;BME280;35385;55.668;37.508;2023-05-02T05:37:41;100094.38;;;13.95;92.40
36600;BME280;35385;55.668;37.508;2023-05-02T05:38:42;100076.81;;;13.82;88.86
36600;BME280;35385;55.668;37.508;2023-05-02T05:39:44;100058.53;;;13.75;87.60
36600;BME280;35385;55.668;37.508;2023-05-02T05:40:48;100082.56;;;13.67;88.43
36600;BME280;35385;55.668;37.508;2023-05-02T05:41:49;100077.00;;;13.59;88.75
36600;BME280;35385;55.668;37.508;2023-05-02T05:42:50;100086.03;;;13.58;87.83
36600;BME280;35385;55.668;37.508;2023-05-02T05:43:51;100067.69;;;13.54;89.33
36600;BME280;35385;55.668;37.508;2023-05-02T05:44:52;100077.94;;;13.39;88.07